sensor_id;sensor_type;location;lat;lon;timestamp;P1;durP1;ratioP1;P2;durP2;ratioP2
18853;SDS011;9556;49.374;19.446;2023-07-08T00:00:50;4.13;;;3.20;;
18853;SDS011;9556;49.374;19.446;2023-07-08T00:03:19;4.93;;;3.08;;
18853;SDS011;9556;49.374;19.446;2023-07-08T00:05:47;5.97;;;3.30;;
18853;SDS011;9556;49.374;19.446;2023-07-08T00:08:14;5.57;;;3.55;;
18853;SDS011;9556;49.374;19.446;2023-07-08T00:10:42;4.30;;;3.13;;
18853;SDS011;9556;49.374;19.446;2023-07-08T00:13:09;6.28;;;3.40;;
18853;SDS011;9556;49.374;19.446;2023-07-08T00:15:37;4.00;;;3.22;;
18853;SDS011;9556;49.374;19.446;2023-07-08T00:18:08;4.45;;;3.30;;
18853;SDS011;9556;49.374;19.446;2023-07-08T00:20:39;5.57;;;3.30;;
18853;SDS011;9556;49.374;19.446;2023-07-08T00:23:08;5.20;;;3.17;;
18853;SDS011;9556;49.374;19.446;2023-07-08T00:25:35;8.00;;;3.15;;
18853;SDS011;9556;49.374;19.446;2023-07-08T00:28:04;4.57;;;3.30;;
18853;SDS011;9556;49.374;19.446;2023-07-08T00:30:31;5.80;;;3.10;;
18853;SDS011;9556;49.374;19.446;2023-07-08T00:32:59;5.05;;;3.10;;
18853;SDS011;9556;49.374;19.446;2023-07-08T00:35:28;4.30;;;2.97;;
18853;SDS011;9556;49.374;19.446;2023-07-08T00:37:58;4.45;;;3.22;;
18853;SDS011;9556;49.374;19.446;2023-07-08T00:40:27;6.35;;;3.20;;
18853;SDS011;9556;49.374;19.446;2023-07-08T00:42:55;4.70;;;3.17;;
18853;SDS011;9556;49.374;19.446;2023-07-08T00:45:29;4.85;;;3.20;;
18853;SDS011;9556;49.374;19.446;2023-07-08T00:47:57;4.32;;;2.90;;
18853;SDS011;9556;49.374;19.446;2023-07-08T00:50:26;4.20;;;3.10;;
18853;SDS011;9556;49.374;19.446;2023-07-08T00:55:37;5.80;;;2.80;;
18853;SDS011;9556;49.374;19.446;2023-07-08T00:58:04;5.88;;;3.10;;
18853;SDS011;9556;49.374;19.446;2023-07-08T01:00:31;5.53;;;3.10;;
18853;SDS011;9556;49.374;19.446;2023-07-08T01:02:58;4.43;;;3.00;;
18853;SDS011;9556;49.374;19.446;2023-07-08T01:05:25;5.75;;;3.10;;
18853;SDS011;9556;49.374;19.446;2023-07-08T01:07:55;3.78;;;2.88;;
18853;SDS011;9556;49.374;19.446;2023-07-08T01:10:30;4.45;;;2.83;;
18853;SDS011;9556;49.374;19.446;2023-07-08T01:13:01;3.85;;;2.80;;
18853;SDS011;9556;49.374;19.446;2023-07-08T01:15:33;3.83;;;2.90;;
18853;SDS011;9556;49.374;19.446;2023-07-08T01:18:01;3.80;;;2.80;;
18853;SDS011;9556;49.374;19.446;2023-07-08T01:20:29;4.88;;;2.90;;
18853;SDS011;9556;49.374;19.446;2023-07-08T01:22:58;3.65;;;2.85;;
18853;SDS011;9556;49.374;19.446;2023-07-08T01:25:25;3.60;;;2.60;;
18853;SDS011;9556;49.374;19.446;2023-07-08T01:27:53;5.22;;;2.63;;
18853;SDS011;9556;49.374;19.446;2023-07-08T01:30:21;3.65;;;2.67;;
18853;SDS011;9556;49.374;19.446;2023-07-08T01:32:48;3.80;;;3.10;;
18853;SDS011;9556;49.374;19.446;2023-07-08T01:35:16;4.95;;;3.00;;
18853;SDS011;9556;49.374;19.446;2023-07-08T01:37:44;6.60;;;3.17;;
18853;SDS011;9556;49.374;19.446;2023-07-08T01:40:16;4.57;;;2.80;;
18853;SDS011;9556;49.374;19.446;2023-07-08T01:42:43;5.25;;;2.90;;
18853;SDS011;9556;49.374;19.446;2023-07-08T01:45:10;5.45;;;3.05;;
18853;SDS011;9556;49.374;19.446;2023-07-08T01:47:38;4.72;;;3.00;;
18853;SDS011;9556;49.374;19.446;2023-07-08T01:50:06;4.78;;;2.85;;
18853;SDS011;9556;49.374;19.446;2023-07-08T01:52:33;4.10;;;2.85;;
18853;SDS011;9556;49.374;19.446;2023-07-08T01:55:01;4.93;;;3.17;;
18853;SDS011;9556;49.374;19.446;2023-07-08T01:57:29;4.10;;;2.80;;
18853;SDS011;9556;49.374;19.446;2023-07-08T01:59:56;3.55;;;2.50;;
18853;SDS011;9556;49.374;19.446;2023-07-08T02:02:24;3.58;;;2.90;;
18853;SDS011;9556;49.374;19.446;2023-07-08T02:04:51;3.78;;;2.78;;
18853;SDS011;9556;49.374;19.446;2023-07-08T02:07:18;3.67;;;3.03;;
18853;SDS011;9556;49.374;19.446;2023-07-08T02:09:45;4.95;;;3.13;;
18853;SDS011;9556;49.374;19.446;2023-07-08T02:12:12;3.70;;;2.90;;
18853;SDS011;9556;49.374;19.446;2023-07-08T02:14:41;4.05;;;2.80;;
18853;SDS011;9556;49.374;19.446;2023-07-08T02:17:08;4.25;;;2.92;;
18853;SDS011;9556;49.374;19.446;2023-07-08T02:19:35;3.95;;;2.92;;
18853;SDS011;9556;49.374;19.446;2023-07-08T02:22:02;6.10;;;3.00;;
18853;SDS011;9556;49.374;19.446;2023-07-08T02:24:30;3.55;;;2.70;;
18853;SDS011;9556;49.374;19.446;2023-07-08T02:26:57;4.05;;;2.83;;
18853;SDS011;9556;49.374;19.446;2023-07-08T02:29:24;3.28;;;2.60;;
18853;SDS011;9556;49.374;19.446;2023-07-08T02:31:53;4.40;;;3.08;;
18853;SDS011;9556;49.374;19.446;2023-07-08T02:34:21;3.50;;;2.80;;
18853;SDS011;9556;49.374;19.446;2023-07-08T02:36:48;5.07;;;2.92;;
18853;SDS011;9556;49.374;19.446;2023-07-08T02:39:15;3.90;;;2.88;;
18853;SDS011;9556;49.374;19.446;2023-07-08T02:41:42;3.97;;;2.42;;
18853;SDS011;9556;49.374;19.446;2023-07-08T02:44:09;3.75;;;2.70;;
18853;SDS011;9556;49.374;19.446;2023-07-08T02:46:36;5.28;;;2.97;;
18853;SDS011;9556;49.374;19.446;2023-07-08T02:49:05;3.05;;;2.55;;
18853;SDS011;9556;49.374;19.446;2023-07-08T02:51:32;4.18;;;2.60;;
18853;SDS011;9556;49.374;19.446;2023-07-08T02:53:59;5.38;;;2.65;;
18853;SDS011;9556;49.374;19.446;2023-07-08T02:56:27;4.20;;;2.63;;
18853;SDS011;9556;49.374;19.446;2023-07-08T02:58:54;3.63;;;2.55;;
18853;SDS011;9556;49.374;19.446;2023-07-08T03:01:21;4.03;;;2.97;;
18853;SDS011;9556;49.374;19.446;2023-07-08T03:03:48;3.95;;;3.03;;
18853;SDS011;9556;49.374;19.446;2023-07-08T03:06:17;3.92;;;2.83;;
18853;SDS011;9556;49.374;19.446;2023-07-08T03:08:44;3.63;;;2.60;;
18853;SDS011;9556;49.374;19.446;2023-07-08T03:11:11;4.82;;;2.90;;
18853;SDS011;9556;49.374;19.446;2023-07-08T03:13:38;4.38;;;2.70;;
18853;SDS011;9556;49.374;19.446;2023-07-08T03:16:05;3.33;;;2.30;;
18853;SDS011;9556;49.374;19.446;2023-07-08T03:18:37;2.90;;;2.45;;
18853;SDS011;9556;49.374;19.446;2023-07-08T03:21:11;5.45;;;2.80;;
18853;SDS011;9556;49.374;19.446;2023-07-08T03:23:40;5.05;;;3.30;;
18853;SDS011;9556;49.374;19.446;2023-07-08T03:26:08;5.50;;;3.50;;
18853;SDS011;9556;49.374;19.446;2023-07-08T03:28:39;7.07;;;4.32;;
18853;SDS011;9556;49.374;19.446;2023-07-08T03:31:07;9.30;;;5.50;;
18853;SDS011;9556;49.374;19.446;2023-07-08T03:33:35;10.10;;;5.72;;
18853;SDS011;9556;49.374;19.446;2023-07-08T03:36:02;13.55;;;7.93;;
18853;SDS011;9556;49.374;19.446;2023-07-08T03:38:29;13.80;;;8.07;;
18853;SDS011;9556;49.374;19.446;2023-07-08T03:40:58;9.57;;;6.10;;
18853;SDS011;9556;49.374;19.446;2023-07-08T03:43:25;8.73;;;5.65;;
18853;SDS011;9556;49.374;19.446;2023-07-08T03:45:52;9.25;;;5.57;;
18853;SDS011;9556;49.374;19.446;2023-07-08T03:48:20;7.05;;;4.97;;
18853;SDS011;9556;49.374;19.446;2023-07-08T03:50:47;6.22;;;4.15;;
18853;SDS011;9556;49.374;19.446;2023-07-08T03:53:14;5.88;;;3.90;;
18853;SDS011;9556;49.374;19.446;2023-07-08T03:55:41;5.00;;;3.92;;
18853;SDS011;9556;49.374;19.446;2023-07-08T03:58:10;6.30;;;3.72;;
18853;SDS011;9556;49.374;19.446;2023-07-08T04:00:37;6.13;;;3.95;;
18853;SDS011;9556;49.374;19.446;2023-07-08T04:03:04;6.57;;;3.70;;
18853;SDS011;9556;49.374;19.446;2023-07-08T04:05:31;5.55;;;3.40;;
18853;SDS011;9556;49.374;19.446;2023-07-08T04:07:58;4.28;;;3.13;;
18853;SDS011;9556;49.374;19.446;2023-07-08T04:10:26;4.15;;;2.90;;
18853;SDS011;9556;49.374;19.446;2023-07-08T04:12:53;4.20;;;2.80;;
18853;SDS011;9556;49.374;19.446;2023-07-08T04:15:21;3.55;;;2.67;;
18853;SDS011;9556;49.374;19.446;2023-07-08T04:17:50;3.20;;;2.60;;
18853;SDS011;9556;49.374;19.446;2023-07-08T04:20:19;3.92;;;2.50;;
18853;SDS011;9556;49.374;19.446;2023-07-08T04:22:46;3.45;;;2.42;;
18853;SDS011;9556;49.374;19.446;2023-07-08T04:25:13;3.60;;;2.47;;
18853;SDS011;9556;49.374;19.446;2023-07-08T04:27:41;4.07;;;3.00;;
18853;SDS011;9556;49.374;19.446;2023-07-08T04:30:09;4.38;;;2.45;;
18853;SDS011;9556;49.374;19.446;2023-07-08T04:32:41;2.67;;;2.33;;
18853;SDS011;9556;49.374;19.446;2023-07-08T04:35:09;3.90;;;2.65;;
18853;SDS011;9556;49.374;19.446;2023-07-08T04:37:36;3.47;;;2.50;;
18853;SDS011;9556;49.374;19.446;2023-07-08T04:40:04;3.65;;;2.42;;
18853;SDS011;9556;49.374;19.446;2023-07-08T04:42:33;2.95;;;2.42;;
18853;SDS011;9556;49.374;19.446;2023-07-08T04:45:00;3.65;;;2.38;;
18853;SDS011;9556;49.374;19.446;2023-07-08T04:47:29;2.83;;;2.53;;
18853;SDS011;9556;49.374;19.446;2023-07-08T04:50:00;3.28;;;2.50;;
18853;SDS011;9556;49.374;19.446;2023-07-08T04:52:27;3.70;;;2.50;;
18853;SDS011;9556;49.374;19.446;2023-07-08T04:54:54;4.10;;;2.58;;
18853;SDS011;9556;49.374;19.446;2023-07-08T04:57:21;4.47;;;2.60;;
18853;SDS011;9556;49.374;19.446;2023-07-08T04:59:49;3.97;;;2.67;;
18853;SDS011;9556;49.374;19.446;2023-07-08T05:02:16;3.53;;;2.63;;
18853;SDS011;9556;49.374;19.446;2023-07-08T05:04:44;3.65;;;2.67;;
18853;SDS011;9556;49.374;19.446;2023-07-08T05:07:13;4.88;;;2.70;;
18853;SDS011;9556;49.374;19.446;2023-07-08T05:09:40;3.42;;;2.38;;
18853;SDS011;9556;49.374;19.446;2023-07-08T05:12:07;4.35;;;2.53;;
18853;SDS011;9556;49.374;19.446;2023-07-08T05:14:35;2.17;;;1.90;;
18853;SDS011;9556;49.374;19.446;2023-07-08T05:17:02;3.25;;;2.55;;
18853;SDS011;9556;49.374;19.446;2023-07-08T05:19:29;3.85;;;2.75;;
18853;SDS011;9556;49.374;19.446;2023-07-08T05:21:56;3.67;;;2.50;;
18853;SDS011;9556;49.374;19.446;2023-07-08T05:24:25;4.50;;;2.55;;
18853;SDS011;9556;49.374;19.446;2023-07-08T05:26:52;3.88;;;2.42;;
18853;SDS011;9556;49.374;19.446;2023-07-08T05:29:19;2.83;;;2.40;;
18853;SDS011;9556;49.374;19.446;2023-07-08T05:31:46;4.57;;;2.67;;
18853;SDS011;9556;49.374;19.446;2023-07-08T05:34:15;3.63;;;2.47;;
18853;SDS011;9556;49.374;19.446;2023-07-08T05:36:42;4.20;;;2.65;;
18853;SDS011;9556;49.374;19.446;2023-07-08T05:39:09;3.03;;;2.50;;
18853;SDS011;9556;49.374;19.446;2023-07-08T05:41:38;2.83;;;2.50;;
18853;SDS011;9556;49.374;19.446;2023-07-08T05:44:05;6.95;;;2.70;;
18853;SDS011;9556;49.374;19.446;2023-07-08T05:46:32;6.13;;;2.63;;
18853;SDS011;9556;49.374;19.446;2023-07-08T05:48:59;3.75;;;2.60;;
18853;SDS011;9556;49.374;19.446;2023-07-08T05:51:26;4.75;;;2.83;;
18853;SDS011;9556;49.374;19.446;2023-07-08T05:53:53;4.57;;;2.88;;
18853;SDS011;9556;49.374;19.446;2023-07-08T05:56:21;3.67;;;2.28;;
18853;SDS011;9556;49.374;19.446;2023-07-08T05:58:49;5.55;;;2.78;;
18853;SDS011;9556;49.374;19.446;2023-07-08T06:01:16;3.92;;;2.70;;
18853;SDS011;9556;49.374;19.446;2023-07-08T06:03:43;2.80;;;2.42;;
18853;SDS011;9556;49.374;19.446;2023-07-08T06:06:11;3.17;;;2.60;;
18853;SDS011;9556;49.374;19.446;2023-07-08T06:08:38;2.63;;;2.30;;
18853;SDS011;9556;49.374;19.446;2023-07-08T06:11:05;2.67;;;2.40;;
18853;SDS011;9556;49.374;19.446;2023-07-08T06:13:32;3.65;;;2.88;;
18853;SDS011;9556;49.374;19.446;2023-07-08T06:16:01;3.33;;;2.45;;
18853;SDS011;9556;49.374;19.446;2023-07-08T06:18:28;5.38;;;3.28;;
18853;SDS011;9556;49.374;19.446;2023-07-08T06:20:58;3.58;;;2.58;;
18853;SDS011;9556;49.374;19.446;2023-07-08T06:23:26;3.38;;;2.60;;
18853;SDS011;9556;49.374;19.446;2023-07-08T06:25:54;4.30;;;2.72;;
18853;SDS011;9556;49.374;19.446;2023-07-08T06:28:21;3.03;;;2.58;;
18853;SDS011;9556;49.374;19.446;2023-07-08T06:30:49;6.00;;;2.83;;
18853;SDS011;9556;49.374;19.446;2023-07-08T06:33:17;5.90;;;2.58;;
18853;SDS011;9556;49.374;19.446;2023-07-08T06:35:44;4.10;;;2.40;;
18853;SDS011;9556;49.374;19.446;2023-07-08T06:38:12;3.90;;;2.60;;
18853;SDS011;9556;49.374;19.446;2023-07-08T06:40:39;4.75;;;2.90;;
18853;SDS011;9556;49.374;19.446;2023-07-08T06:43:06;3.92;;;2.60;;
18853;SDS011;9556;49.374;19.446;2023-07-08T06:45:34;4.07;;;2.50;;
18853;SDS011;9556;49.374;19.446;2023-07-08T06:48:01;8.02;;;2.78;;
18853;SDS011;9556;49.374;19.446;2023-07-08T06:50:30;10.02;;;3.30;;
18853;SDS011;9556;49.374;19.446;2023-07-08T06:52:57;7.07;;;3.22;;
18853;SDS011;9556;49.374;19.446;2023-07-08T06:55:24;4.85;;;3.00;;
18853;SDS011;9556;49.374;19.446;2023-07-08T06:57:51;11.98;;;3.40;;
18853;SDS011;9556;49.374;19.446;2023-07-08T07:00:18;4.90;;;3.10;;
18853;SDS011;9556;49.374;19.446;2023-07-08T07:02:46;3.80;;;2.90;;
18853;SDS011;9556;49.374;19.446;2023-07-08T07:05:13;5.97;;;2.90;;
18853;SDS011;9556;49.374;19.446;2023-07-08T07:07:41;7.20;;;3.00;;
18853;SDS011;9556;49.374;19.446;2023-07-08T07:10:09;4.13;;;3.17;;
18853;SDS011;9556;49.374;19.446;2023-07-08T07:12:36;4.65;;;3.42;;
18853;SDS011;9556;49.374;19.446;2023-07-08T07:15:04;6.40;;;3.33;;
18853;SDS011;9556;49.374;19.446;2023-07-08T07:17:31;12.80;;;3.08;;
18853;SDS011;9556;49.374;19.446;2023-07-08T07:20:00;7.38;;;3.40;;
18853;SDS011;9556;49.374;19.446;2023-07-08T07:22:28;6.32;;;3.28;;
18853;SDS011;9556;49.374;19.446;2023-07-08T07:24:56;5.05;;;3.00;;
18853;SDS011;9556;49.374;19.446;2023-07-08T07:27:23;8.80;;;3.00;;
18853;SDS011;9556;49.374;19.446;2023-07-08T07:29:51;4.60;;;3.15;;
18853;SDS011;9556;49.374;19.446;2023-07-08T07:32:19;9.38;;;3.20;;
18853;SDS011;9556;49.374;19.446;2023-07-08T07:34:49;7.57;;;3.60;;
18853;SDS011;9556;49.374;19.446;2023-07-08T07:37:17;9.10;;;3.25;;
18853;SDS011;9556;49.374;19.446;2023-07-08T07:39:44;13.38;;;5.70;;
18853;SDS011;9556;49.374;19.446;2023-07-08T07:42:13;6.63;;;3.30;;
18853;SDS011;9556;49.374;19.446;2023-07-08T07:44:41;6.00;;;3.33;;
18853;SDS011;9556;49.374;19.446;2023-07-08T07:47:08;7.18;;;2.90;;
18853;SDS011;9556;49.374;19.446;2023-07-08T07:49:36;5.82;;;3.33;;
18853;SDS011;9556;49.374;19.446;2023-07-08T07:52:03;5.60;;;3.22;;
18853;SDS011;9556;49.374;19.446;2023-07-08T07:54:31;4.82;;;3.20;;
18853;SDS011;9556;49.374;19.446;2023-07-08T07:56:58;5.25;;;3.00;;
18853;SDS011;9556;49.374;19.446;2023-07-08T07:59:27;6.97;;;2.72;;
18853;SDS011;9556;49.374;19.446;2023-07-08T08:01:54;7.80;;;3.10;;
18853;SDS011;9556;49.374;19.446;2023-07-08T08:04:21;3.65;;;2.47;;
18853;SDS011;9556;49.374;19.446;2023-07-08T08:06:48;4.55;;;2.58;;
18853;SDS011;9556;49.374;19.446;2023-07-08T08:09:15;3.67;;;2.40;;
18853;SDS011;9556;49.374;19.446;2023-07-08T08:11:43;3.45;;;2.30;;
18853;SDS011;9556;49.374;19.446;2023-07-08T08:14:10;3.88;;;2.65;;
18853;SDS011;9556;49.374;19.446;2023-07-08T08:16:38;5.18;;;2.60;;
18853;SDS011;9556;49.374;19.446;2023-07-08T08:19:05;3.17;;;2.35;;
18853;SDS011;9556;49.374;19.446;2023-07-08T08:21:32;4.57;;;2.35;;
18853;SDS011;9556;49.374;19.446;2023-07-08T08:24:00;3.28;;;2.13;;
18853;SDS011;9556;49.374;19.446;2023-07-08T08:26:27;4.43;;;2.50;;
18853;SDS011;9556;49.374;19.446;2023-07-08T08:28:54;3.33;;;2.47;;
18853;SDS011;9556;49.374;19.446;2023-07-08T08:31:22;3.85;;;2.22;;
18853;SDS011;9556;49.374;19.446;2023-07-08T08:33:52;2.97;;;2.28;;
18853;SDS011;9556;49.374;19.446;2023-07-08T08:36:19;3.70;;;2.30;;
18853;SDS011;9556;49.374;19.446;2023-07-08T08:38:46;3.53;;;2.10;;
18853;SDS011;9556;49.374;19.446;2023-07-08T08:41:14;2.70;;;2.03;;
18853;SDS011;9556;49.374;19.446;2023-07-08T08:43:41;2.72;;;2.20;;
18853;SDS011;9556;49.374;19.446;2023-07-08T08:46:10;3.13;;;2.35;;
18853;SDS011;9556;49.374;19.446;2023-07-08T08:48:40;2.80;;;1.98;;
18853;SDS011;9556;49.374;19.446;2023-07-08T08:51:10;4.07;;;2.25;;
18853;SDS011;9556;49.374;19.446;2023-07-08T08:53:39;4.70;;;1.85;;
18853;SDS011;9556;49.374;19.446;2023-07-08T08:56:09;3.67;;;2.40;;
18853;SDS011;9556;49.374;19.446;2023-07-08T08:58:40;2.13;;;1.73;;
18853;SDS011;9556;49.374;19.446;2023-07-08T09:01:10;2.03;;;1.80;;
18853;SDS011;9556;49.374;19.446;2023-07-08T09:03:41;3.05;;;1.80;;
18853;SDS011;9556;49.374;19.446;2023-07-08T09:06:12;4.43;;;1.90;;
18853;SDS011;9556;49.374;19.446;2023-07-08T09:08:40;3.50;;;2.20;;
18853;SDS011;9556;49.374;19.446;2023-07-08T09:11:10;2.53;;;1.80;;
18853;SDS011;9556;49.374;19.446;2023-07-08T09:13:38;4.65;;;2.00;;
18853;SDS011;9556;49.374;19.446;2023-07-08T09:16:06;3.35;;;2.10;;
18853;SDS011;9556;49.374;19.446;2023-07-08T09:18:36;2.95;;;1.88;;
18853;SDS011;9556;49.374;19.446;2023-07-08T09:21:16;2.35;;;2.03;;
18853;SDS011;9556;49.374;19.446;2023-07-08T09:23:46;2.15;;;1.88;;
18853;SDS011;9556;49.374;19.446;2023-07-08T09:26:16;3.28;;;2.13;;
18853;SDS011;9556;49.374;19.446;2023-07-08T09:28:45;2.35;;;2.08;;
18853;SDS011;9556;49.374;19.446;2023-07-08T09:31:22;3.00;;;2.10;;
18853;SDS011;9556;49.374;19.446;2023-07-08T09:33:50;3.28;;;1.90;;
18853;SDS011;9556;49.374;19.446;2023-07-08T09:36:21;3.28;;;2.10;;
18853;SDS011;9556;49.374;19.446;2023-07-08T09:38:49;3.50;;;2.10;;
18853;SDS011;9556;49.374;19.446;2023-07-08T09:41:28;4.43;;;2.00;;
18853;SDS011;9556;49.374;19.446;2023-07-08T09:44:02;2.38;;;2.00;;
18853;SDS011;9556;49.374;19.446;2023-07-08T09:46:31;6.38;;;2.25;;
18853;SDS011;9556;49.374;19.446;2023-07-08T09:49:09;2.55;;;1.85;;
18853;SDS011;9556;49.374;19.446;2023-07-08T09:51:37;3.30;;;2.08;;
18853;SDS011;9556;49.374;19.446;2023-07-08T09:54:06;4.05;;;2.20;;
18853;SDS011;9556;49.374;19.446;2023-07-08T09:56:34;4.55;;;1.80;;
18853;SDS011;9556;49.374;19.446;2023-07-08T09:59:02;2.75;;;1.95;;
18853;SDS011;9556;49.374;19.446;2023-07-08T10:01:29;3.40;;;2.17;;
18853;SDS011;9556;49.374;19.446;2023-07-08T10:03:57;3.15;;;2.10;;
18853;SDS011;9556;49.374;19.446;2023-07-08T10:06:26;4.63;;;2.20;;
18853;SDS011;9556;49.374;19.446;2023-07-08T10:08:55;2.83;;;1.98;;
18853;SDS011;9556;49.374;19.446;2023-07-08T10:11:23;3.35;;;2.20;;
18853;SDS011;9556;49.374;19.446;2023-07-08T10:13:52;5.78;;;2.20;;
18853;SDS011;9556;49.374;19.446;2023-07-08T10:16:21;3.38;;;2.00;;
18853;SDS011;9556;49.374;19.446;2023-07-08T10:18:49;3.80;;;2.55;;
18853;SDS011;9556;49.374;19.446;2023-07-08T10:21:20;4.30;;;1.92;;
18853;SDS011;9556;49.374;19.446;2023-07-08T10:23:51;4.10;;;2.15;;
18853;SDS011;9556;49.374;19.446;2023-07-08T10:26:23;3.00;;;2.25;;
18853;SDS011;9556;49.374;19.446;2023-07-08T10:28:54;2.85;;;2.28;;
18853;SDS011;9556;49.374;19.446;2023-07-08T10:31:26;3.47;;;2.00;;
18853;SDS011;9556;49.374;19.446;2023-07-08T10:33:59;3.97;;;2.05;;
18853;SDS011;9556;49.374;19.446;2023-07-08T10:36:36;3.55;;;2.33;;
18853;SDS011;9556;49.374;19.446;2023-07-08T10:39:17;2.58;;;1.98;;
18853;SDS011;9556;49.374;19.446;2023-07-08T10:41:53;3.20;;;2.10;;
18853;SDS011;9556;49.374;19.446;2023-07-08T10:44:22;3.60;;;2.33;;
18853;SDS011;9556;49.374;19.446;2023-07-08T10:46:55;2.70;;;2.05;;
18853;SDS011;9556;49.374;19.446;2023-07-08T10:49:28;2.92;;;2.10;;
18853;SDS011;9556;49.374;19.446;2023-07-08T10:52:00;3.17;;;2.20;;
18853;SDS011;9556;49.374;19.446;2023-07-08T10:57:24;3.33;;;2.38;;
18853;SDS011;9556;49.374;19.446;2023-07-08T11:00:01;2.60;;;2.20;;
18853;SDS011;9556;49.374;19.446;2023-07-08T11:02:39;3.05;;;1.90;;
18853;SDS011;9556;49.374;19.446;2023-07-08T11:05:15;3.03;;;2.22;;
18853;SDS011;9556;49.374;19.446;2023-07-08T11:07:48;3.03;;;2.22;;
18853;SDS011;9556;49.374;19.446;2023-07-08T11:10:18;2.85;;;2.08;;
18853;SDS011;9556;49.374;19.446;2023-07-08T11:12:49;3.55;;;2.05;;
18853;SDS011;9556;49.374;19.446;2023-07-08T11:15:20;3.20;;;2.20;;
18853;SDS011;9556;49.374;19.446;2023-07-08T11:17:51;2.90;;;2.13;;
18853;SDS011;9556;49.374;19.446;2023-07-08T11:20:21;2.40;;;1.90;;
18853;SDS011;9556;49.374;19.446;2023-07-08T11:22:50;3.00;;;2.10;;
18853;SDS011;9556;49.374;19.446;2023-07-08T11:25:20;3.40;;;2.10;;
18853;SDS011;9556;49.374;19.446;2023-07-08T11:27:49;3.15;;;2.10;;
18853;SDS011;9556;49.374;19.446;2023-07-08T11:30:20;3.55;;;2.15;;
18853;SDS011;9556;49.374;19.446;2023-07-08T11:32:54;3.05;;;2.10;;
18853;SDS011;9556;49.374;19.446;2023-07-08T11:35:27;3.58;;;2.13;;
18853;SDS011;9556;49.374;19.446;2023-07-08T11:37:56;2.17;;;1.95;;
18853;SDS011;9556;49.374;19.446;2023-07-08T11:40:23;2.60;;;1.83;;
18853;SDS011;9556;49.374;19.446;2023-07-08T11:42:53;2.22;;;1.60;;
18853;SDS011;9556;49.374;19.446;2023-07-08T11:45:27;3.42;;;1.80;;
18853;SDS011;9556;49.374;19.446;2023-07-08T11:48:03;2.40;;;1.80;;
18853;SDS011;9556;49.374;19.446;2023-07-08T11:50:31;1.60;;;1.50;;
18853;SDS011;9556;49.374;19.446;2023-07-08T11:53:00;2.33;;;1.52;;
18853;SDS011;9556;49.374;19.446;2023-07-08T11:55:34;1.80;;;1.50;;
18853;SDS011;9556;49.374;19.446;2023-07-08T11:58:03;1.80;;;1.17;;
18853;SDS011;9556;49.374;19.446;2023-07-08T12:00:33;1.42;;;1.20;;
18853;SDS011;9556;49.374;19.446;2023-07-08T12:03:17;1.75;;;1.30;;
18853;SDS011;9556;49.374;19.446;2023-07-08T12:05:45;2.13;;;1.40;;
18853;SDS011;9556;49.374;19.446;2023-07-08T12:08:13;1.85;;;1.13;;
18853;SDS011;9556;49.374;19.446;2023-07-08T12:10:41;1.33;;;1.13;;
18853;SDS011;9556;49.374;19.446;2023-07-08T12:13:11;1.75;;;1.25;;
18853;SDS011;9556;49.374;19.446;2023-07-08T12:15:38;3.38;;;1.10;;
18853;SDS011;9556;49.374;19.446;2023-07-08T12:18:09;1.58;;;1.10;;
18853;SDS011;9556;49.374;19.446;2023-07-08T12:20:37;1.48;;;1.10;;
18853;SDS011;9556;49.374;19.446;2023-07-08T12:23:07;1.30;;;1.20;;
18853;SDS011;9556;49.374;19.446;2023-07-08T12:25:36;1.10;;;1.00;;
18853;SDS011;9556;49.374;19.446;2023-07-08T12:28:03;1.40;;;1.27;;
18853;SDS011;9556;49.374;19.446;2023-07-08T12:30:32;1.42;;;1.30;;
18853;SDS011;9556;49.374;19.446;2023-07-08T12:33:00;1.77;;;1.40;;
18853;SDS011;9556;49.374;19.446;2023-07-08T12:35:29;1.77;;;1.40;;
18853;SDS011;9556;49.374;19.446;2023-07-08T12:37:58;2.20;;;1.48;;
18853;SDS011;9556;49.374;19.446;2023-07-08T12:40:26;1.85;;;1.30;;
18853;SDS011;9556;49.374;19.446;2023-07-08T12:42:54;2.30;;;1.60;;
18853;SDS011;9556;49.374;19.446;2023-07-08T12:45:21;2.08;;;1.60;;
18853;SDS011;9556;49.374;19.446;2023-07-08T12:47:51;2.20;;;1.60;;
18853;SDS011;9556;49.374;19.446;2023-07-08T12:50:18;3.63;;;1.80;;
18853;SDS011;9556;49.374;19.446;2023-07-08T12:52:46;1.33;;;1.20;;
18853;SDS011;9556;49.374;19.446;2023-07-08T12:55:15;2.47;;;1.63;;
18853;SDS011;9556;49.374;19.446;2023-07-08T12:57:42;1.75;;;1.50;;
18853;SDS011;9556;49.374;19.446;2023-07-08T13:00:12;4.00;;;1.60;;
18853;SDS011;9556;49.374;19.446;2023-07-08T13:02:40;1.45;;;1.35;;
18853;SDS011;9556;49.374;19.446;2023-07-08T13:05:08;3.10;;;1.40;;
18853;SDS011;9556;49.374;19.446;2023-07-08T13:07:36;1.48;;;1.23;;
18853;SDS011;9556;49.374;19.446;2023-07-08T13:10:05;1.63;;;1.30;;
18853;SDS011;9556;49.374;19.446;2023-07-08T13:12:33;2.80;;;1.60;;
18853;SDS011;9556;49.374;19.446;2023-07-08T13:15:03;1.92;;;1.33;;
18853;SDS011;9556;49.374;19.446;2023-07-08T13:17:32;3.10;;;1.58;;
18853;SDS011;9556;49.374;19.446;2023-07-08T13:20:02;2.00;;;1.60;;
18853;SDS011;9556;49.374;19.446;2023-07-08T13:22:31;1.70;;;1.60;;
18853;SDS011;9556;49.374;19.446;2023-07-08T13:24:58;2.33;;;1.50;;
18853;SDS011;9556;49.374;19.446;2023-07-08T13:27:26;3.53;;;1.35;;
18853;SDS011;9556;49.374;19.446;2023-07-08T13:29:53;2.85;;;1.50;;
18853;SDS011;9556;49.374;19.446;2023-07-08T13:32:20;2.40;;;1.70;;
18853;SDS011;9556;49.374;19.446;2023-07-08T13:34:56;1.67;;;1.30;;
18853;SDS011;9556;49.374;19.446;2023-07-08T13:37:23;2.33;;;1.70;;
18853;SDS011;9556;49.374;19.446;2023-07-08T13:39:52;2.20;;;1.40;;
18853;SDS011;9556;49.374;19.446;2023-07-08T13:42:19;2.58;;;1.60;;
18853;SDS011;9556;49.374;19.446;2023-07-08T13:44:47;2.28;;;1.50;;
18853;SDS011;9556;49.374;19.446;2023-07-08T13:47:22;1.88;;;1.30;;
18853;SDS011;9556;49.374;19.446;2023-07-08T13:49:53;3.88;;;1.23;;
18853;SDS011;9556;49.374;19.446;2023-07-08T13:52:21;2.30;;;1.52;;
18853;SDS011;9556;49.374;19.446;2023-07-08T13:54:50;1.70;;;1.33;;
18853;SDS011;9556;49.374;19.446;2023-07-08T13:57:20;1.90;;;1.52;;
18853;SDS011;9556;49.374;19.446;2023-07-08T13:59:48;1.83;;;1.40;;
18853;SDS011;9556;49.374;19.446;2023-07-08T14:02:16;2.70;;;1.60;;
18853;SDS011;9556;49.374;19.446;2023-07-08T14:04:43;1.95;;;1.48;;
18853;SDS011;9556;49.374;19.446;2023-07-08T14:07:13;1.80;;;1.40;;
18853;SDS011;9556;49.374;19.446;2023-07-08T14:09:42;1.55;;;1.30;;
18853;SDS011;9556;49.374;19.446;2023-07-08T14:12:09;2.63;;;1.60;;
18853;SDS011;9556;49.374;19.446;2023-07-08T14:14:37;2.30;;;1.70;;
18853;SDS011;9556;49.374;19.446;2023-07-08T14:17:05;2.58;;;1.67;;
18853;SDS011;9556;49.374;19.446;2023-07-08T14:19:35;1.98;;;1.58;;
18853;SDS011;9556;49.374;19.446;2023-07-08T14:22:06;2.72;;;1.75;;
18853;SDS011;9556;49.374;19.446;2023-07-08T14:24:34;1.90;;;1.30;;
18853;SDS011;9556;49.374;19.446;2023-07-08T14:27:01;1.90;;;1.55;;
18853;SDS011;9556;49.374;19.446;2023-07-08T14:29:29;2.33;;;1.40;;
18853;SDS011;9556;49.374;19.446;2023-07-08T14:31:57;3.53;;;1.42;;
18853;SDS011;9556;49.374;19.446;2023-07-08T14:34:25;2.28;;;1.50;;
18853;SDS011;9556;49.374;19.446;2023-07-08T14:36:53;1.67;;;1.40;;
18853;SDS011;9556;49.374;19.446;2023-07-08T14:39:20;2.35;;;1.70;;
18853;SDS011;9556;49.374;19.446;2023-07-08T14:41:48;2.00;;;1.55;;
18853;SDS011;9556;49.374;19.446;2023-07-08T14:44:19;2.55;;;1.70;;
18853;SDS011;9556;49.374;19.446;2023-07-08T14:46:47;1.63;;;1.40;;
18853;SDS011;9556;49.374;19.446;2023-07-08T14:49:17;1.48;;;1.30;;
18853;SDS011;9556;49.374;19.446;2023-07-08T14:51:44;2.10;;;1.50;;
18853;SDS011;9556;49.374;19.446;2023-07-08T14:54:12;2.22;;;1.58;;
18853;SDS011;9556;49.374;19.446;2023-07-08T14:56:39;2.45;;;1.60;;
18853;SDS011;9556;49.374;19.446;2023-07-08T14:59:07;2.25;;;1.50;;
18853;SDS011;9556;49.374;19.446;2023-07-08T15:01:38;2.00;;;1.60;;